sensor_id;sensor_type;location;lat;lon;timestamp;pressure;altitude;pressure_sealevel;temperature;humidity
23953;BME280;12163;49.316;6.092;2023-12-28T00:00:06;99360.25;;;10.72;52.31
23953;BME280;12163;49.316;6.092;2023-12-28T00:02:33;99347.25;;;10.74;53.41
23953;BME280;12163;49.316;6.092;2023-12-28T00:05:00;99358.56;;;10.76;53.09
23953;BME280;12163;49.316;6.092;2023-12-28T00:07:27;99345.56;;;10.78;52.91
23953;BME280;12163;49.316;6.092;2023-12-28T00:09:54;99353.66;;;10.78;53.12
23953;BME280;12163;49.316;6.092;2023-12-28T00:12:20;99357.97;;;10.79;52.77
23953;BME280;12163;49.316;6.092;2023-12-28T00:14:49;99350.91;;;10.83;53.10
23953;BME280;12163;49.316;6.092;2023-12-28T00:17:16;99356.00;;;10.84;53.81
23953;BME280;12163;49.316;6.092;2023-12-28T00:19:42;99355.66;;;10.91;54.77
23953;BME280;12163;49.316;6.092;2023-12-28T00:22:09;99364.78;;;10.95;55.04
23953;BME280;12163;49.316;6.092;2023-12-28T00:24:35;99358.19;;;11.01;55.31
23953;BME280;12163;49.316;6.092;2023-12-28T00:27:02;99360.63;;;11.02;55.98
23953;BME280;12163;49.316;6.092;2023-12-28T00:29:29;99365.19;;;11.02;57.43
23953;BME280;12163;49.316;6.092;2023-12-28T00:31:55;99360.41;;;10.99;57.93
23953;BME280;12163;49.316;6.092;2023-12-28T00:34:22;99365.28;;;10.97;58.55
23953;BME280;12163;49.316;6.092;2023-12-28T00:36:49;99367.41;;;11.00;58.92
23953;BME280;12163;49.316;6.092;2023-12-28T00:39:15;99360.91;;;11.01;60.15
23953;BME280;12163;49.316;6.092;2023-12-28T00:41:42;99364.19;;;10.98;61.16
23953;BME280;12163;49.316;6.092;2023-12-28T00:44:08;99361.50;;;10.98;62.08
23953;BME280;12163;49.316;6.092;2023-12-28T00:46:36;99357.19;;;10.97;63.40
23953;BME280;12163;49.316;6.092;2023-12-28T00:49:02;99364.53;;;10.91;63.86
23953;BME280;12163;49.316;6.092;2023-12-28T00:51:29;99375.16;;;10.88;64.38
23953;BME280;12163;49.316;6.092;2023-12-28T00:53:55;99369.75;;;10.88;64.19
23953;BME280;12163;49.316;6.092;2023-12-28T00:56:22;99374.31;;;10.87;64.83
23953;BME280;12163;49.316;6.092;2023-12-28T00:58:49;99387.31;;;10.85;65.01
23953;BME280;12163;49.316;6.092;2023-12-28T01:01:15;99392.47;;;10.82;66.10
23953;BME280;12163;49.316;6.092;2023-12-28T01:03:42;99391.97;;;10.80;66.13
23953;BME280;12163;49.316;6.092;2023-12-28T01:06:09;99389.84;;;10.77;67.41
23953;BME280;12163;49.316;6.092;2023-12-28T01:08:36;99382.63;;;10.72;68.17
23953;BME280;12163;49.316;6.092;2023-12-28T01:11:03;99387.50;;;10.70;68.20
23953;BME280;12163;49.316;6.092;2023-12-28T01:13:30;99391.28;;;10.69;69.28
23953;BME280;12163;49.316;6.092;2023-12-28T01:15:57;99383.50;;;10.68;69.59
23953;BME280;12163;49.316;6.092;2023-12-28T01:18:24;99389.75;;;10.63;70.03
23953;BME280;12163;49.316;6.092;2023-12-28T01:20:51;99400.91;;;10.57;70.39
23953;BME280;12163;49.316;6.092;2023-12-28T01:23:18;99403.09;;;10.55;71.38
23953;BME280;12163;49.316;6.092;2023-12-28T01:25:44;99410.66;;;10.53;71.73
23953;BME280;12163;49.316;6.092;2023-12-28T01:28:11;99413.88;;;10.55;72.38
23953;BME280;12163;49.316;6.092;2023-12-28T01:30:38;99415.47;;;10.56;72.48
23953;BME280;12163;49.316;6.092;2023-12-28T01:33:04;99417.09;;;10.57;72.44
23953;BME280;12163;49.316;6.092;2023-12-28T01:35:31;99413.63;;;10.51;73.34
23953;BME280;12163;49.316;6.092;2023-12-28T01:37:58;99414.72;;;10.50;73.91
23953;BME280;12163;49.316;6.092;2023-12-28T01:40:27;99418.81;;;10.48;74.50
23953;BME280;12163;49.316;6.092;2023-12-28T01:42:53;99414.56;;;10.42;75.13
23953;BME280;12163;49.316;6.092;2023-12-28T01:45:20;99420.00;;;10.37;75.54
23953;BME280;12163;49.316;6.092;2023-12-28T01:47:47;99430.22;;;10.40;76.11
23953;BME280;12163;49.316;6.092;2023-12-28T01:50:15;99429.94;;;10.41;76.53
23953;BME280;12163;49.316;6.092;2023-12-28T01:52:42;99432.91;;;10.40;77.32
23953;BME280;12163;49.316;6.092;2023-12-28T01:55:09;99442.09;;;10.39;77.43
23953;BME280;12163;49.316;6.092;2023-12-28T01:57:36;99444.28;;;10.37;77.50
23953;BME280;12163;49.316;6.092;2023-12-28T02:00:03;99442.09;;;10.39;77.64
23953;BME280;12163;49.316;6.092;2023-12-28T02:02:31;99439.13;;;10.40;77.98
23953;BME280;12163;49.316;6.092;2023-12-28T02:04:58;99440.44;;;10.43;78.31
23953;BME280;12163;49.316;6.092;2023-12-28T02:07:25;99442.00;;;10.49;78.32
23953;BME280;12163;49.316;6.092;2023-12-28T02:09:52;99447.41;;;10.49;77.83
23953;BME280;12163;49.316;6.092;2023-12-28T02:12:19;99447.97;;;10.46;77.73
23953;BME280;12163;49.316;6.092;2023-12-28T02:14:45;99443.69;;;10.45;77.80
23953;BME280;12163;49.316;6.092;2023-12-28T02:17:17;99433.97;;;10.44;77.89
23953;BME280;12163;49.316;6.092;2023-12-28T02:19:52;99421.56;;;10.43;77.74
23953;BME280;12163;49.316;6.092;2023-12-28T02:22:20;99425.00;;;10.48;78.13
23953;BME280;12163;49.316;6.092;2023-12-28T02:25:12;99423.69;;;10.46;78.24
23953;BME280;12163;49.316;6.092;2023-12-28T02:27:44;99416.63;;;10.50;77.43
23953;BME280;12163;49.316;6.092;2023-12-28T02:30:15;99418.25;;;10.51;77.67
23953;BME280;12163;49.316;6.092;2023-12-28T02:35:17;99434.94;;;10.53;78.27
23953;BME280;12163;49.316;6.092;2023-12-28T02:37:47;99446.25;;;10.55;78.00
23953;BME280;12163;49.316;6.092;2023-12-28T02:40:17;99440.84;;;10.55;77.77
23953;BME280;12163;49.316;6.092;2023-12-28T02:42:44;99440.28;;;10.58;77.96
23953;BME280;12163;49.316;6.092;2023-12-28T02:45:11;99441.88;;;10.59;78.16
23953;BME280;12163;49.316;6.092;2023-12-28T02:47:38;99459.97;;;10.58;78.09
23953;BME280;12163;49.316;6.092;2023-12-28T02:50:05;99457.56;;;10.57;77.59
23953;BME280;12163;49.316;6.092;2023-12-28T02:52:32;99451.00;;;10.63;77.59
23953;BME280;12163;49.316;6.092;2023-12-28T02:54:59;99452.59;;;10.64;77.57
23953;BME280;12163;49.316;6.092;2023-12-28T02:57:25;99457.50;;;10.62;77.52
23953;BME280;12163;49.316;6.092;2023-12-28T02:59:52;99452.47;;;10.55;77.65
23953;BME280;12163;49.316;6.092;2023-12-28T03:02:19;99447.34;;;10.54;77.72
23953;BME280;12163;49.316;6.092;2023-12-28T03:04:45;99445.47;;;10.54;78.03
23953;BME280;12163;49.316;6.092;2023-12-28T03:07:12;99432.50;;;10.56;78.28
23953;BME280;12163;49.316;6.092;2023-12-28T03:09:38;99439.50;;;10.57;77.99
23953;BME280;12163;49.316;6.092;2023-12-28T03:12:06;99431.66;;;10.56;77.94
23953;BME280;12163;49.316;6.092;2023-12-28T03:14:33;99444.66;;;10.54;78.31
23953;BME280;12163;49.316;6.092;2023-12-28T03:16:59;99436.28;;;10.55;78.31
23953;BME280;12163;49.316;6.092;2023-12-28T03:19:26;99444.06;;;10.57;78.54
23953;BME280;12163;49.316;6.092;2023-12-28T03:21:52;99439.50;;;10.57;78.82
23953;BME280;12163;49.316;6.092;2023-12-28T03:24:19;99432.75;;;10.55;78.40
23953;BME280;12163;49.316;6.092;2023-12-28T03:26:46;99433.03;;;10.53;79.04
23953;BME280;12163;49.316;6.092;2023-12-28T03:29:12;99421.72;;;10.51;79.06
23953;BME280;12163;49.316;6.092;2023-12-28T03:31:39;99438.75;;;10.52;79.21
23953;BME280;12163;49.316;6.092;2023-12-28T03:34:07;99443.81;;;10.53;79.28
23953;BME280;12163;49.316;6.092;2023-12-28T03:36:34;99437.59;;;10.58;78.95
23953;BME280;12163;49.316;6.092;2023-12-28T03:39:00;99451.06;;;10.58;79.37
23953;BME280;12163;49.316;6.092;2023-12-28T03:41:27;99431.66;;;10.56;79.62
23953;BME280;12163;49.316;6.092;2023-12-28T03:43:53;99422.41;;;10.62;79.43
23953;BME280;12163;49.316;6.092;2023-12-28T03:46:20;99424.03;;;10.63;79.07
23953;BME280;12163;49.316;6.092;2023-12-28T03:48:46;99422.72;;;10.60;79.11
23953;BME280;12163;49.316;6.092;2023-12-28T03:51:15;99415.13;;;10.62;78.89
23953;BME280;12163;49.316;6.092;2023-12-28T03:53:42;99414.84;;;10.64;79.38
23953;BME280;12163;49.316;6.092;2023-12-28T03:56:21;99408.34;;;10.65;79.23
23953;BME280;12163;49.316;6.092;2023-12-28T03:58:48;99413.75;;;10.65;78.77
23953;BME280;12163;49.316;6.092;2023-12-28T04:01:16;99414.28;;;10.67;78.81
23953;BME280;12163;49.316;6.092;2023-12-28T04:03:42;99408.56;;;10.68;78.86
23953;BME280;12163;49.316;6.092;2023-12-28T04:06:09;99407.22;;;10.71;78.71
23953;BME280;12163;49.316;6.092;2023-12-28T04:08:36;99419.63;;;10.72;78.88
23953;BME280;12163;49.316;6.092;2023-12-28T04:11:02;99436.81;;;10.76;78.62
23953;BME280;12163;49.316;6.092;2023-12-28T04:13:31;99436.00;;;10.75;78.91
23953;BME280;12163;49.316;6.092;2023-12-28T04:15:58;99432.00;;;10.73;78.88
23953;BME280;12163;49.316;6.092;2023-12-28T04:18:25;99446.59;;;10.72;79.52
23953;BME280;12163;49.316;6.092;2023-12-28T04:20:52;99442.81;;;10.73;79.55
23953;BME280;12163;49.316;6.092;2023-12-28T04:23:18;99453.03;;;10.76;79.65
23953;BME280;12163;49.316;6.092;2023-12-28T04:25:45;99447.56;;;10.81;79.20
23953;BME280;12163;49.316;6.092;2023-12-28T04:28:11;99456.13;;;10.88;79.29
23953;BME280;12163;49.316;6.092;2023-12-28T04:30:38;99448.53;;;10.90;78.82
23953;BME280;12163;49.316;6.092;2023-12-28T04:33:05;99446.34;;;10.92;79.09
23953;BME280;12163;49.316;6.092;2023-12-28T04:35:31;99454.06;;;10.98;79.03
23953;BME280;12163;49.316;6.092;2023-12-28T04:37:58;99452.13;;;11.04;78.65
23953;BME280;12163;49.316;6.092;2023-12-28T04:40:25;99452.94;;;11.04;78.22
23953;BME280;12163;49.316;6.092;2023-12-28T04:42:52;99464.00;;;11.03;78.36
23953;BME280;12163;49.316;6.092;2023-12-28T04:45:18;99462.91;;;11.04;78.29
23953;BME280;12163;49.316;6.092;2023-12-28T04:47:45;99460.16;;;11.09;78.64
23953;BME280;12163;49.316;6.092;2023-12-28T04:50:12;99466.53;;;11.18;78.52
23953;BME280;12163;49.316;6.092;2023-12-28T04:52:38;99463.75;;;11.23;77.51
23953;BME280;12163;49.316;6.092;2023-12-28T04:55:07;99460.97;;;11.28;77.90
23953;BME280;12163;49.316;6.092;2023-12-28T04:57:33;99453.75;;;11.23;78.13
23953;BME280;12163;49.316;6.092;2023-12-28T05:00:00;99460.53;;;11.21;77.87
23953;BME280;12163;49.316;6.092;2023-12-28T05:02:27;99462.97;;;11.22;77.51
23953;BME280;12163;49.316;6.092;2023-12-28T05:04:53;99467.78;;;11.25;77.96
23953;BME280;12163;49.316;6.092;2023-12-28T05:07:20;99478.59;;;11.25;77.86
23953;BME280;12163;49.316;6.092;2023-12-28T05:09:46;99464.75;;;11.27;78.08
23953;BME280;12163;49.316;6.092;2023-12-28T05:12:13;99471.19;;;11.31;77.56
23953;BME280;12163;49.316;6.092;2023-12-28T05:14:40;99456.59;;;11.32;77.84
23953;BME280;12163;49.316;6.092;2023-12-28T05:17:06;99465.78;;;11.31;77.26
23953;BME280;12163;49.316;6.092;2023-12-28T05:19:33;99448.47;;;11.32;78.01
23953;BME280;12163;49.316;6.092;2023-12-28T05:21:59;99442.00;;;11.33;77.11
23953;BME280;12163;49.316;6.092;2023-12-28T05:24:30;99431.25;;;11.28;77.86
23953;BME280;12163;49.316;6.092;2023-12-28T05:26:56;99439.34;;;11.28;77.29
23953;BME280;12163;49.316;6.092;2023-12-28T05:29:23;99442.97;;;11.23;77.39
23953;BME280;12163;49.316;6.092;2023-12-28T05:31:50;99439.75;;;11.21;77.23
23953;BME280;12163;49.316;6.092;2023-12-28T05:34:16;99421.13;;;11.20;77.73
23953;BME280;12163;49.316;6.092;2023-12-28T05:36:43;99435.72;;;11.19;77.15
23953;BME280;12163;49.316;6.092;2023-12-28T05:39:12;99436.31;;;11.16;76.97
23953;BME280;12163;49.316;6.092;2023-12-28T05:41:40;99440.03;;;11.20;77.57
23953;BME280;12163;49.316;6.092;2023-12-28T05:44:06;99442.50;;;11.16;77.14
23953;BME280;12163;49.316;6.092;2023-12-28T05:46:33;99444.91;;;11.18;77.01
23953;BME280;12163;49.316;6.092;2023-12-28T05:49:00;99449.50;;;11.17;77.06
23953;BME280;12163;49.316;6.092;2023-12-28T05:51:26;99455.13;;;11.21;77.61
23953;BME280;12163;49.316;6.092;2023-12-28T05:53:53;99453.09;;;11.50;78.94
23953;BME280;12163;49.316;6.092;2023-12-28T05:56:19;99449.50;;;11.73;76.65
23953;BME280;12163;49.316;6.092;2023-12-28T05:58:46;99449.56;;;11.86;75.35
23953;BME280;12163;49.316;6.092;2023-12-28T06:01:12;99450.28;;;11.91;75.85
23953;BME280;12163;49.316;6.092;2023-12-28T06:03:39;99448.75;;;12.17;75.96
23953;BME280;12163;49.316;6.092;2023-12-28T06:06:06;99448.50;;;12.46;73.62
23953;BME280;12163;49.316;6.092;2023-12-28T06:08:33;99447.41;;;12.60;72.13
23953;BME280;12163;49.316;6.092;2023-12-28T06:10:59;99446.19;;;12.53;72.67
23953;BME280;12163;49.316;6.092;2023-12-28T06:13:26;99445.78;;;12.59;73.18
23953;BME280;12163;49.316;6.092;2023-12-28T06:15:52;99453.63;;;12.47;70.67
23953;BME280;12163;49.316;6.092;2023-12-28T06:18:19;99445.56;;;12.29;72.13
23953;BME280;12163;49.316;6.092;2023-12-28T06:20:46;99463.22;;;12.26;73.18
23953;BME280;12163;49.316;6.092;2023-12-28T06:23:12;99476.84;;;12.21;72.94
23953;BME280;12163;49.316;6.092;2023-12-28T06:25:39;99476.00;;;12.21;72.14
23953;BME280;12163;49.316;6.092;2023-12-28T06:28:05;99484.59;;;12.09;72.43
23953;BME280;12163;49.316;6.092;2023-12-28T06:30:32;99477.81;;;12.12;72.81
23953;BME280;12163;49.316;6.092;2023-12-28T06:32:59;99480.41;;;12.17;75.11
23953;BME280;12163;49.316;6.092;2023-12-28T06:35:25;99482.03;;;12.31;72.54
23953;BME280;12163;49.316;6.092;2023-12-28T06:37:52;99492.88;;;12.31;74.44
23953;BME280;12163;49.316;6.092;2023-12-28T06:40:19;99492.69;;;12.41;73.79
23953;BME280;12163;49.316;6.092;2023-12-28T06:42:45;99496.47;;;12.40;72.74
23953;BME280;12163;49.316;6.092;2023-12-28T06:45:12;99498.53;;;12.48;72.35
23953;BME280;12163;49.316;6.092;2023-12-28T06:47:38;99508.91;;;12.41;72.14
23953;BME280;12163;49.316;6.092;2023-12-28T06:50:05;99498.69;;;12.38;71.99
23953;BME280;12163;49.316;6.092;2023-12-28T06:52:32;99498.78;;;12.33;72.28
23953;BME280;12163;49.316;6.092;2023-12-28T06:54:59;99495.69;;;12.26;73.50
23953;BME280;12163;49.316;6.092;2023-12-28T06:57:26;99497.28;;;12.27;72.35
23953;BME280;12163;49.316;6.092;2023-12-28T06:59:52;99505.03;;;12.47;74.96
23953;BME280;12163;49.316;6.092;2023-12-28T07:02:20;99506.78;;;12.70;72.88
23953;BME280;12163;49.316;6.092;2023-12-28T07:04:47;99496.34;;;12.77;72.58
23953;BME280;12163;49.316;6.092;2023-12-28T07:07:13;99492.84;;;12.90;72.10
23953;BME280;12163;49.316;6.092;2023-12-28T07:09:40;99502.50;;;12.96;73.64
23953;BME280;12163;49.316;6.092;2023-12-28T07:12:07;99505.00;;;12.93;70.31
23953;BME280;12163;49.316;6.092;2023-12-28T07:14:33;99506.97;;;12.74;70.37
23953;BME280;12163;49.316;6.092;2023-12-28T07:17:02;99516.78;;;12.56;70.51
23953;BME280;12163;49.316;6.092;2023-12-28T07:19:29;99522.44;;;12.41;71.78
23953;BME280;12163;49.316;6.092;2023-12-28T07:21:56;99525.34;;;12.31;71.96
23953;BME280;12163;49.316;6.092;2023-12-28T07:24:23;99519.66;;;12.14;72.40
23953;BME280;12163;49.316;6.092;2023-12-28T07:26:50;99518.75;;;12.05;72.57
23953;BME280;12163;49.316;6.092;2023-12-28T07:29:16;99512.59;;;12.00;72.90
23953;BME280;12163;49.316;6.092;2023-12-28T07:31:43;99520.00;;;11.94;73.21
23953;BME280;12163;49.316;6.092;2023-12-28T07:34:10;99517.09;;;11.91;73.68
23953;BME280;12163;49.316;6.092;2023-12-28T07:36:36;99523.88;;;11.88;73.66
23953;BME280;12163;49.316;6.092;2023-12-28T07:39:03;99523.38;;;11.86;74.31
23953;BME280;12163;49.316;6.092;2023-12-28T07:41:29;99519.56;;;11.87;73.93
23953;BME280;12163;49.316;6.092;2023-12-28T07:43:56;99524.97;;;11.87;74.07
23953;BME280;12163;49.316;6.092;2023-12-28T07:46:23;99515.53;;;11.85;73.97
23953;BME280;12163;49.316;6.092;2023-12-28T07:48:49;99519.94;;;11.81;74.17
23953;BME280;12163;49.316;6.092;2023-12-28T07:51:16;99534.34;;;11.77;74.39
23953;BME280;12163;49.316;6.092;2023-12-28T07:53:43;99524.09;;;11.73;74.13
23953;BME280;12163;49.316;6.092;2023-12-28T07:56:09;99524.09;;;11.73;74.66
23953;BME280;12163;49.316;6.092;2023-12-28T07:58:36;99533.09;;;11.69;74.37
23953;BME280;12163;49.316;6.092;2023-12-28T08:01:03;99533.16;;;11.64;74.42
23953;BME280;12163;49.316;6.092;2023-12-28T08:03:30;99532.44;;;11.59;74.97
23953;BME280;12163;49.316;6.092;2023-12-28T08:05:57;99531.94;;;11.52;75.38
23953;BME280;12163;49.316;6.092;2023-12-28T08:08:24;99540.66;;;11.49;75.05
23953;BME280;12163;49.316;6.092;2023-12-28T08:10:50;99539.94;;;11.43;75.65
23953;BME280;12163;49.316;6.092;2023-12-28T08:13:17;99533.47;;;11.39;76.22
23953;BME280;12163;49.316;6.092;2023-12-28T08:15:47;99532.19;;;11.37;75.72
23953;BME280;12163;49.316;6.092;2023-12-28T08:18:14;99541.88;;;11.38;76.46
23953;BME280;12163;49.316;6.092;2023-12-28T08:20:41;99537.00;;;11.40;76.44
23953;BME280;12163;49.316;6.092;2023-12-28T08:23:07;99544.00;;;11.41;76.39
23953;BME280;12163;49.316;6.092;2023-12-28T08:25:43;99539.13;;;11.43;75.80
23953;BME280;12163;49.316;6.092;2023-12-28T08:28:10;99535.81;;;11.46;75.53
23953;BME280;12163;49.316;6.092;2023-12-28T08:30:37;99536.94;;;11.45;75.17
23953;BME280;12163;49.316;6.092;2023-12-28T08:33:04;99538.53;;;11.46;75.75
23953;BME280;12163;49.316;6.092;2023-12-28T08:35:33;99543.94;;;11.46;76.03
23953;BME280;12163;49.316;6.092;2023-12-28T08:38:00;99545.78;;;11.50;75.98
23953;BME280;12163;49.316;6.092;2023-12-28T08:40:26;99541.66;;;11.53;75.45
23953;BME280;12163;49.316;6.092;2023-12-28T08:42:53;99545.97;;;11.54;75.10
23953;BME280;12163;49.316;6.092;2023-12-28T08:45:20;99549.38;;;11.64;75.08
23953;BME280;12163;49.316;6.092;2023-12-28T08:47:47;99552.81;;;11.70;74.92
23953;BME280;12163;49.316;6.092;2023-12-28T08:50:14;99549.97;;;11.79;74.19
23953;BME280;12163;49.316;6.092;2023-12-28T08:52:40;99540.19;;;11.83;74.69
23953;BME280;12163;49.316;6.092;2023-12-28T08:55:07;99536.91;;;11.86;74.14
23953;BME280;12163;49.316;6.092;2023-12-28T08:57:34;99543.09;;;11.87;74.28
23953;BME280;12163;49.316;6.092;2023-12-28T09:00:09;99534.19;;;11.86;74.36
23953;BME280;12163;49.316;6.092;2023-12-28T09:02:36;99540.69;;;11.85;73.84
23953;BME280;12163;49.316;6.092;2023-12-28T09:05:04;99541.19;;;11.87;73.73
23953;BME280;12163;49.316;6.092;2023-12-28T09:07:31;99542.53;;;11.90;73.61
23953;BME280;12163;49.316;6.092;2023-12-28T09:09:57;99538.41;;;11.92;73.64
23953;BME280;12163;49.316;6.092;2023-12-28T09:12:24;99541.63;;;11.94;73.66
23953;BME280;12163;49.316;6.092;2023-12-28T09:14:50;99543.81;;;11.92;72.83
23953;BME280;12163;49.316;6.092;2023-12-28T09:17:22;99550.25;;;11.96;72.67
23953;BME280;12163;49.316;6.092;2023-12-28T09:19:49;99541.03;;;11.97;73.29
23953;BME280;12163;49.316;6.092;2023-12-28T09:22:16;99552.38;;;11.99;72.87
23953;BME280;12163;49.316;6.092;2023-12-28T09:24:42;99546.38;;;12.02;73.12
23953;BME280;12163;49.316;6.092;2023-12-28T09:27:09;99552.91;;;12.01;73.07
23953;BME280;12163;49.316;6.092;2023-12-28T09:29:35;99549.59;;;12.04;73.61
23953;BME280;12163;49.316;6.092;2023-12-28T09:32:02;99555.59;;;12.01;72.98
23953;BME280;12163;49.316;6.092;2023-12-28T09:34:29;99563.22;;;11.99;73.25
23953;BME280;12163;49.316;6.092;2023-12-28T09:36:56;99562.31;;;12.04;72.71
23953;BME280;12163;49.316;6.092;2023-12-28T09:39:22;99579.63;;;12.03;72.48
23953;BME280;12163;49.316;6.092;2023-12-28T09:42:04;99566.34;;;12.06;73.37
23953;BME280;12163;49.316;6.092;2023-12-28T09:44:32;99571.16;;;12.09;73.28
23953;BME280;12163;49.316;6.092;2023-12-28T09:47:01;99574.13;;;12.08;73.58
23953;BME280;12163;49.316;6.092;2023-12-28T09:49:30;99576.56;;;12.09;73.30
23953;BME280;12163;49.316;6.092;2023-12-28T09:51:57;99581.75;;;12.06;74.13
23953;BME280;12163;49.316;6.092;2023-12-28T09:54:24;99560.94;;;12.06;74.08
23953;BME280;12163;49.316;6.092;2023-12-28T09:56:51;99563.53;;;12.11;73.82
23953;BME280;12163;49.316;6.092;2023-12-28T09:59:19;99560.75;;;12.16;73.62
23953;BME280;12163;49.316;6.092;2023-12-28T10:01:47;99564.47;;;12.20;73.22
23953;BME280;12163;49.316;6.092;2023-12-28T10:04:16;99562.81;;;12.24;73.51
23953;BME280;12163;49.316;6.092;2023-12-28T10:06:42;99564.03;;;12.32;72.62
23953;BME280;12163;49.316;6.092;2023-12-28T10:09:10;99561.34;;;12.32;73.10
23953;BME280;12163;49.316;6.092;2023-12-28T10:11:37;99567.13;;;12.25;72.70
23953;BME280;12163;49.316;6.092;2023-12-28T10:14:04;99567.19;;;12.20;72.70
23953;BME280;12163;49.316;6.092;2023-12-28T10:16:31;99574.22;;;12.21;72.97
23953;BME280;12163;49.316;6.092;2023-12-28T10:18:57;99566.63;;;12.23;73.53
23953;BME280;12163;49.316;6.092;2023-12-28T10:21:24;99565.41;;;12.29;73.13
23953;BME280;12163;49.316;6.092;2023-12-28T10:23:51;99569.72;;;12.30;73.11
23953;BME280;12163;49.316;6.092;2023-12-28T10:26:18;99561.13;;;12.28;73.57
23953;BME280;12163;49.316;6.092;2023-12-28T10:28:45;99561.72;;;12.25;73.55
23953;BME280;12163;49.316;6.092;2023-12-28T10:31:12;99560.59;;;12.26;73.44
23953;BME280;12163;49.316;6.092;2023-12-28T10:33:39;99559.88;;;12.21;73.48
23953;BME280;12163;49.316;6.092;2023-12-28T10:36:07;99571.56;;;12.16;73.89
23953;BME280;12163;49.316;6.092;2023-12-28T10:38:36;99566.16;;;12.16;74.10
23953;BME280;12163;49.316;6.092;2023-12-28T10:41:06;99562.94;;;12.14;74.94
23953;BME280;12163;49.316;6.092;2023-12-28T10:44:03;99544.75;;;12.20;74.34
23953;BME280;12163;49.316;6.092;2023-12-28T10:46:39;99550.94;;;12.20;74.38
23953;BME280;12163;49.316;6.092;2023-12-28T10:49:12;99548.31;;;12.15;74.83
23953;BME280;12163;49.316;6.092;2023-12-28T10:51:43;99546.81;;;12.09;75.51
23953;BME280;12163;49.316;6.092;2023-12-28T10:54:33;99542.50;;;12.08;75.22
23953;BME280;12163;49.316;6.092;2023-12-28T10:57:14;99542.50;;;12.08;75.59
23953;BME280;12163;49.316;6.092;2023-12-28T11:00:22;99547.19;;;12.03;76.67
23953;BME280;12163;49.316;6.092;2023-12-28T11:02:52;99547.50;;;12.01;76.92
23953;BME280;12163;49.316;6.092;2023-12-28T11:05:22;99541.03;;;11.97;76.80
23953;BME280;12163;49.316;6.092;2023-12-28T11:07:50;99534.47;;;12.03;78.12
23953;BME280;12163;49.316;6.092;2023-12-28T11:10:22;99531.69;;;12.08;76.96
23953;BME280;12163;49.316;6.092;2023-12-28T11:12:53;99529.56;;;12.05;77.04
23953;BME280;12163;49.316;6.092;2023-12-28T11:15:20;99527.81;;;11.96;77.79
23953;BME280;12163;49.316;6.092;2023-12-28T11:17:47;99528.59;;;11.96;78.30
23953;BME280;12163;49.316;6.092;2023-12-28T11:20:15;99520.50;;;11.96;78.43
23953;BME280;12163;49.316;6.092;2023-12-28T11:22:42;99525.84;;;12.01;78.45
23953;BME280;12163;49.316;6.092;2023-12-28T11:25:18;99520.34;;;12.06;78.65
23953;BME280;12163;49.316;6.092;2023-12-28T11:27:46;99534.81;;;12.15;79.17
23953;BME280;12163;49.316;6.092;2023-12-28T11:30:13;99521.88;;;12.12;78.13
23953;BME280;12163;49.316;6.092;2023-12-28T11:32:41;99523.06;;;12.06;78.71
23953;BME280;12163;49.316;6.092;2023-12-28T11:35:11;99525.75;;;12.06;78.66
23953;BME280;12163;49.316;6.092;2023-12-28T11:37:44;99529.97;;;12.12;79.28
23953;BME280;12163;49.316;6.092;2023-12-28T11:40:16;99530.31;;;12.11;78.18
23953;BME280;12163;49.316;6.092;2023-12-28T11:42:50;99515.59;;;11.98;79.20
23953;BME280;12163;49.316;6.092;2023-12-28T11:45:22;99509.63;;;12.01;78.43
23953;BME280;12163;49.316;6.092;2023-12-28T11:48:03;99509.50;;;11.93;78.40
23953;BME280;12163;49.316;6.092;2023-12-28T11:50:31;99512.09;;;11.98;78.92
23953;BME280;12163;49.316;6.092;2023-12-28T11:52:58;99513.19;;;11.97;78.56
23953;BME280;12163;49.316;6.092;2023-12-28T11:55:26;99505.38;;;11.95;78.08
23953;BME280;12163;49.316;6.092;2023-12-28T11:57:52;99498.81;;;12.01;78.39
23953;BME280;12163;49.316;6.092;2023-12-28T12:00:19;99500.81;;;12.09;77.88
23953;BME280;12163;49.316;6.092;2023-12-28T12:02:47;99485.69;;;12.08;76.71
23953;BME280;12163;49.316;6.092;2023-12-28T12:05:14;99497.13;;;12.05;76.72
23953;BME280;12163;49.316;6.092;2023-12-28T12:07:41;99490.97;;;12.00;77.07
23953;BME280;12163;49.316;6.092;2023-12-28T12:10:08;99486.38;;;12.00;76.99
23953;BME280;12163;49.316;6.092;2023-12-28T12:12:34;99477.59;;;12.08;76.88
23953;BME280;12163;49.316;6.092;2023-12-28T12:15:01;99471.56;;;12.11;77.07
23953;BME280;12163;49.316;6.092;2023-12-28T12:17:28;99466.06;;;12.16;75.96
23953;BME280;12163;49.316;6.092;2023-12-28T12:19:55;99470.38;;;12.17;76.00
23953;BME280;12163;49.316;6.092;2023-12-28T12:22:25;99479.31;;;12.18;76.02
23953;BME280;12163;49.316;6.092;2023-12-28T12:24:56;99479.00;;;12.19;75.05
23953;BME280;12163;49.316;6.092;2023-12-28T12:27:24;99481.28;;;12.12;75.47
23953;BME280;12163;49.316;6.092;2023-12-28T12:29:51;99478.00;;;12.15;76.36
23953;BME280;12163;49.316;6.092;2023-12-28T12:32:17;99472.59;;;12.15;75.72
23953;BME280;12163;49.316;6.092;2023-12-28T12:34:44;99475.78;;;12.17;76.29
23953;BME280;12163;49.316;6.092;2023-12-28T12:37:11;99485.44;;;12.23;75.33
23953;BME280;12163;49.316;6.092;2023-12-28T12:39:37;99478.44;;;12.22;75.59
23953;BME280;12163;49.316;6.092;2023-12-28T12:42:04;99487.22;;;12.14;74.23
23953;BME280;12163;49.316;6.092;2023-12-28T12:44:31;99477.81;;;12.12;74.95
23953;BME280;12163;49.316;6.092;2023-12-28T12:46:58;99487.53;;;12.13;74.69
23953;BME280;12163;49.316;6.092;2023-12-28T12:49:25;99479.09;;;12.14;74.75
23953;BME280;12163;49.316;6.092;2023-12-28T12:51:53;99488.41;;;12.08;75.13
23953;BME280;12163;49.316;6.092;2023-12-28T12:54:19;99484.88;;;12.08;74.68
23953;BME280;12163;49.316;6.092;2023-12-28T12:56:47;99480.88;;;12.05;75.14
23953;BME280;12163;49.316;6.092;2023-12-28T12:59:14;99478.19;;;12.05;75.24
23953;BME280;12163;49.316;6.092;2023-12-28T13:01:46;99475.09;;;12.12;75.20
23953;BME280;12163;49.316;6.092;2023-12-28T13:04:16;99466.97;;;12.12;74.08